sensor_id;sensor_type;location;lat;lon;timestamp;temperature;humidity
8595;DHT22;4335;48.860;9.198;2022-10-28T00:01:09;15.20;99.90
8595;DHT22;4335;48.860;9.198;2022-10-28T00:03:41;15.20;99.90
8595;DHT22;4335;48.860;9.198;2022-10-28T00:06:11;15.20;99.90
8595;DHT22;4335;48.860;9.198;2022-10-28T00:08:41;15.20;99.90
8595;DHT22;4335;48.860;9.198;2022-10-28T00:11:10;15.10;99.90
8595;DHT22;4335;48.860;9.198;2022-10-28T00:13:40;15.10;99.90
8595;DHT22;4335;48.860;9.198;2022-10-28T00:16:15;15.10;99.90
8595;DHT22;4335;48.860;9.198;2022-10-28T00:18:43;15.10;99.90
8595;DHT22;4335;48.860;9.198;2022-10-28T00:21:12;15.00;99.90
8595;DHT22;4335;48.860;9.198;2022-10-28T00:23:43;15.00;99.90
8595;DHT22;4335;48.860;9.198;2022-10-28T00:26:13;15.00;99.90
8595;DHT22;4335;48.860;9.198;2022-10-28T00:28:44;14.90;99.90
8595;DHT22;4335;48.860;9.198;2022-10-28T00:31:14;14.90;99.90
8595;DHT22;4335;48.860;9.198;2022-10-28T00:33:45;14.90;99.90
8595;DHT22;4335;48.860;9.198;2022-10-28T00:36:15;14.80;99.90
8595;DHT22;4335;48.860;9.198;2022-10-28T00:38:44;14.80;99.90
8595;DHT22;4335;48.860;9.198;2022-10-28T00:41:13;14.90;99.90
8595;DHT22;4335;48.860;9.198;2022-10-28T00:43:43;14.90;99.90
8595;DHT22;4335;48.860;9.198;2022-10-28T00:46:17;14.90;99.90
8595;DHT22;4335;48.860;9.198;2022-10-28T00:48:48;14.80;99.90
8595;DHT22;4335;48.860;9.198;2022-10-28T00:51:20;14.80;99.90
8595;DHT22;4335;48.860;9.198;2022-10-28T00:53:50;14.80;99.90
8595;DHT22;4335;48.860;9.198;2022-10-28T00:56:18;14.80;99.90
8595;DHT22;4335;48.860;9.198;2022-10-28T00:58:48;14.80;99.90
8595;DHT22;4335;48.860;9.198;2022-10-28T01:01:16;14.90;99.90
8595;DHT22;4335;48.860;9.198;2022-10-28T01:03:50;14.90;99.90
8595;DHT22;4335;48.860;9.198;2022-10-28T01:06:17;14.80;99.90
8595;DHT22;4335;48.860;9.198;2022-10-28T01:08:45;14.80;99.90
8595;DHT22;4335;48.860;9.198;2022-10-28T01:11:43;14.80;99.90
8595;DHT22;4335;48.860;9.198;2022-10-28T01:14:22;14.80;99.90
8595;DHT22;4335;48.860;9.198;2022-10-28T01:17:15;14.70;99.90
8595;DHT22;4335;48.860;9.198;2022-10-28T01:23:01;14.60;99.90
8595;DHT22;4335;48.860;9.198;2022-10-28T01:25:56;14.60;99.90
8595;DHT22;4335;48.860;9.198;2022-10-28T01:31:29;14.50;99.90
8595;DHT22;4335;48.860;9.198;2022-10-28T01:34:06;14.40;99.90
8595;DHT22;4335;48.860;9.198;2022-10-28T01:36:40;14.40;99.90
8595;DHT22;4335;48.860;9.198;2022-10-28T01:39:14;14.40;99.90
8595;DHT22;4335;48.860;9.198;2022-10-28T01:41:49;14.40;99.90
8595;DHT22;4335;48.860;9.198;2022-10-28T01:44:22;14.30;99.90
8595;DHT22;4335;48.860;9.198;2022-10-28T01:46:57;14.30;99.90
8595;DHT22;4335;48.860;9.198;2022-10-28T01:49:33;14.30;99.90
8595;DHT22;4335;48.860;9.198;2022-10-28T01:52:12;14.30;99.90
8595;DHT22;4335;48.860;9.198;2022-10-28T01:54:43;14.30;99.90
8595;DHT22;4335;48.860;9.198;2022-10-28T01:57:12;14.30;99.90
8595;DHT22;4335;48.860;9.198;2022-10-28T01:59:46;14.40;99.90
8595;DHT22;4335;48.860;9.198;2022-10-28T02:02:16;14.30;99.90
8595;DHT22;4335;48.860;9.198;2022-10-28T02:04:44;14.30;99.90
8595;DHT22;4335;48.860;9.198;2022-10-28T02:07:12;14.20;99.90
8595;DHT22;4335;48.860;9.198;2022-10-28T02:09:55;14.30;99.90
8595;DHT22;4335;48.860;9.198;2022-10-28T02:12:28;14.30;99.90
8595;DHT22;4335;48.860;9.198;2022-10-28T02:15:18;14.20;99.90
8595;DHT22;4335;48.860;9.198;2022-10-28T02:18:11;14.20;99.90
8595;DHT22;4335;48.860;9.198;2022-10-28T02:20:50;14.20;99.90
8595;DHT22;4335;48.860;9.198;2022-10-28T02:23:28;14.20;99.90
8595;DHT22;4335;48.860;9.198;2022-10-28T02:26:02;14.30;99.90
8595;DHT22;4335;48.860;9.198;2022-10-28T02:28:41;14.20;99.90
8595;DHT22;4335;48.860;9.198;2022-10-28T02:31:19;14.20;99.90
8595;DHT22;4335;48.860;9.198;2022-10-28T02:33:52;14.30;99.90
8595;DHT22;4335;48.860;9.198;2022-10-28T02:36:21;14.30;99.90
8595;DHT22;4335;48.860;9.198;2022-10-28T02:38:53;14.30;99.90
8595;DHT22;4335;48.860;9.198;2022-10-28T02:41:24;14.20;99.90
8595;DHT22;4335;48.860;9.198;2022-10-28T02:43:54;14.20;99.90
8595;DHT22;4335;48.860;9.198;2022-10-28T02:46:24;14.20;99.90
8595;DHT22;4335;48.860;9.198;2022-10-28T02:48:57;14.20;99.90
8595;DHT22;4335;48.860;9.198;2022-10-28T02:51:33;14.20;99.90
8595;DHT22;4335;48.860;9.198;2022-10-28T02:54:04;14.10;99.90
8595;DHT22;4335;48.860;9.198;2022-10-28T02:56:39;14.10;99.90
8595;DHT22;4335;48.860;9.198;2022-10-28T02:59:12;14.10;99.90
8595;DHT22;4335;48.860;9.198;2022-10-28T03:01:39;14.10;99.90
8595;DHT22;4335;48.860;9.198;2022-10-28T03:04:11;14.00;99.90
8595;DHT22;4335;48.860;9.198;2022-10-28T03:06:38;14.00;99.90
8595;DHT22;4335;48.860;9.198;2022-10-28T03:09:06;14.00;99.90
8595;DHT22;4335;48.860;9.198;2022-10-28T03:11:33;14.10;99.90
8595;DHT22;4335;48.860;9.198;2022-10-28T03:14:03;14.10;99.90
8595;DHT22;4335;48.860;9.198;2022-10-28T03:16:34;14.10;99.90
8595;DHT22;4335;48.860;9.198;2022-10-28T03:19:07;14.20;99.90
8595;DHT22;4335;48.860;9.198;2022-10-28T03:21:36;14.20;99.90
8595;DHT22;4335;48.860;9.198;2022-10-28T03:24:04;14.20;99.90
8595;DHT22;4335;48.860;9.198;2022-10-28T03:26:34;14.20;99.90
8595;DHT22;4335;48.860;9.198;2022-10-28T03:29:02;14.20;99.90
8595;DHT22;4335;48.860;9.198;2022-10-28T03:31:29;14.20;99.90
8595;DHT22;4335;48.860;9.198;2022-10-28T03:33:59;14.20;99.90
8595;DHT22;4335;48.860;9.198;2022-10-28T03:36:27;14.20;99.90
8595;DHT22;4335;48.860;9.198;2022-10-28T03:38:56;14.20;99.90
8595;DHT22;4335;48.860;9.198;2022-10-28T03:41:25;14.20;99.90
8595;DHT22;4335;48.860;9.198;2022-10-28T03:43:52;14.20;99.90
8595;DHT22;4335;48.860;9.198;2022-10-28T03:46:20;14.20;99.90
8595;DHT22;4335;48.860;9.198;2022-10-28T03:48:50;14.20;99.90
8595;DHT22;4335;48.860;9.198;2022-10-28T03:51:20;14.20;99.90
8595;DHT22;4335;48.860;9.198;2022-10-28T03:53:47;14.20;99.90
8595;DHT22;4335;48.860;9.198;2022-10-28T03:56:16;14.30;99.90
8595;DHT22;4335;48.860;9.198;2022-10-28T03:58:47;14.30;99.90
8595;DHT22;4335;48.860;9.198;2022-10-28T04:01:14;14.30;99.90
8595;DHT22;4335;48.860;9.198;2022-10-28T04:03:44;14.30;99.90
8595;DHT22;4335;48.860;9.198;2022-10-28T04:06:11;14.30;99.90
8595;DHT22;4335;48.860;9.198;2022-10-28T04:08:45;14.40;99.90
8595;DHT22;4335;48.860;9.198;2022-10-28T04:11:12;14.50;99.90
8595;DHT22;4335;48.860;9.198;2022-10-28T04:13:41;14.40;99.90
8595;DHT22;4335;48.860;9.198;2022-10-28T04:16:08;14.40;99.90
8595;DHT22;4335;48.860;9.198;2022-10-28T04:18:36;14.30;99.90
8595;DHT22;4335;48.860;9.198;2022-10-28T04:21:03;14.30;99.90
8595;DHT22;4335;48.860;9.198;2022-10-28T04:23:31;14.20;99.90
8595;DHT22;4335;48.860;9.198;2022-10-28T04:25:58;14.20;99.90
8595;DHT22;4335;48.860;9.198;2022-10-28T04:28:25;14.20;99.90
8595;DHT22;4335;48.860;9.198;2022-10-28T04:30:54;14.30;99.90
8595;DHT22;4335;48.860;9.198;2022-10-28T04:33:21;14.30;99.90
8595;DHT22;4335;48.860;9.198;2022-10-28T04:35:48;14.30;99.90
8595;DHT22;4335;48.860;9.198;2022-10-28T04:38:16;14.30;99.90
8595;DHT22;4335;48.860;9.198;2022-10-28T04:40:49;14.20;99.90
8595;DHT22;4335;48.860;9.198;2022-10-28T04:43:17;14.20;99.90
8595;DHT22;4335;48.860;9.198;2022-10-28T04:45:44;14.20;99.90
8595;DHT22;4335;48.860;9.198;2022-10-28T04:48:13;14.20;99.90
8595;DHT22;4335;48.860;9.198;2022-10-28T04:50:47;14.20;99.90
8595;DHT22;4335;48.860;9.198;2022-10-28T04:53:17;14.10;99.90
8595;DHT22;4335;48.860;9.198;2022-10-28T04:55:45;14.10;99.90
8595;DHT22;4335;48.860;9.198;2022-10-28T04:58:12;14.10;99.90
8595;DHT22;4335;48.860;9.198;2022-10-28T05:00:42;14.10;99.90
8595;DHT22;4335;48.860;9.198;2022-10-28T05:03:10;14.00;99.90
8595;DHT22;4335;48.860;9.198;2022-10-28T05:05:39;14.00;99.90
8595;DHT22;4335;48.860;9.198;2022-10-28T05:08:06;14.00;99.90
8595;DHT22;4335;48.860;9.198;2022-10-28T05:10:33;14.00;99.90
8595;DHT22;4335;48.860;9.198;2022-10-28T05:13:01;14.00;99.90
8595;DHT22;4335;48.860;9.198;2022-10-28T05:15:28;14.10;99.90
8595;DHT22;4335;48.860;9.198;2022-10-28T05:17:56;14.10;99.90
8595;DHT22;4335;48.860;9.198;2022-10-28T05:20:23;14.20;99.90
8595;DHT22;4335;48.860;9.198;2022-10-28T05:22:53;14.30;99.90
8595;DHT22;4335;48.860;9.198;2022-10-28T05:25:21;14.30;99.90
8595;DHT22;4335;48.860;9.198;2022-10-28T05:27:52;14.30;99.90
8595;DHT22;4335;48.860;9.198;2022-10-28T05:30:19;14.30;99.90
8595;DHT22;4335;48.860;9.198;2022-10-28T05:32:46;14.20;99.90
8595;DHT22;4335;48.860;9.198;2022-10-28T05:35:14;14.20;99.90
8595;DHT22;4335;48.860;9.198;2022-10-28T05:37:42;14.20;99.90
8595;DHT22;4335;48.860;9.198;2022-10-28T05:40:12;14.20;99.90
8595;DHT22;4335;48.860;9.198;2022-10-28T05:42:42;14.20;99.90
8595;DHT22;4335;48.860;9.198;2022-10-28T05:45:19;14.10;99.90
8595;DHT22;4335;48.860;9.198;2022-10-28T05:47:47;14.10;99.90
8595;DHT22;4335;48.860;9.198;2022-10-28T05:50:16;14.00;99.90
8595;DHT22;4335;48.860;9.198;2022-10-28T05:52:46;14.00;99.90
8595;DHT22;4335;48.860;9.198;2022-10-28T05:55:15;14.00;99.90
8595;DHT22;4335;48.860;9.198;2022-10-28T05:57:44;14.00;99.90
8595;DHT22;4335;48.860;9.198;2022-10-28T06:00:12;14.00;99.90
8595;DHT22;4335;48.860;9.198;2022-10-28T06:02:40;14.00;99.90
8595;DHT22;4335;48.860;9.198;2022-10-28T06:05:08;14.00;99.90
8595;DHT22;4335;48.860;9.198;2022-10-28T06:07:36;14.00;99.90
8595;DHT22;4335;48.860;9.198;2022-10-28T06:10:08;14.00;99.90
8595;DHT22;4335;48.860;9.198;2022-10-28T06:12:37;14.00;99.90
8595;DHT22;4335;48.860;9.198;2022-10-28T06:15:10;14.00;99.90
8595;DHT22;4335;48.860;9.198;2022-10-28T06:17:37;14.00;99.90
8595;DHT22;4335;48.860;9.198;2022-10-28T06:20:06;14.10;99.90
8595;DHT22;4335;48.860;9.198;2022-10-28T06:22:33;14.10;99.90
8595;DHT22;4335;48.860;9.198;2022-10-28T06:25:01;14.20;99.90
8595;DHT22;4335;48.860;9.198;2022-10-28T06:27:28;14.10;99.90
8595;DHT22;4335;48.860;9.198;2022-10-28T06:29:59;14.20;99.90
8595;DHT22;4335;48.860;9.198;2022-10-28T06:32:30;14.20;99.90
8595;DHT22;4335;48.860;9.198;2022-10-28T06:34:57;14.10;99.90
8595;DHT22;4335;48.860;9.198;2022-10-28T06:37:24;14.10;99.90
8595;DHT22;4335;48.860;9.198;2022-10-28T06:39:52;14.10;99.90
8595;DHT22;4335;48.860;9.198;2022-10-28T06:42:19;14.20;99.90
8595;DHT22;4335;48.860;9.198;2022-10-28T06:44:46;14.20;99.90
8595;DHT22;4335;48.860;9.198;2022-10-28T06:47:15;14.20;99.90
8595;DHT22;4335;48.860;9.198;2022-10-28T06:49:46;14.20;99.90
8595;DHT22;4335;48.860;9.198;2022-10-28T06:52:13;14.30;99.90
8595;DHT22;4335;48.860;9.198;2022-10-28T06:54:43;14.30;99.90
8595;DHT22;4335;48.860;9.198;2022-10-28T06:57:11;14.30;99.90
8595;DHT22;4335;48.860;9.198;2022-10-28T06:59:38;14.40;99.90
8595;DHT22;4335;48.860;9.198;2022-10-28T07:02:10;14.40;99.90
8595;DHT22;4335;48.860;9.198;2022-10-28T07:04:42;14.40;99.90
8595;DHT22;4335;48.860;9.198;2022-10-28T07:07:09;14.40;99.90
8595;DHT22;4335;48.860;9.198;2022-10-28T07:09:36;14.40;99.90
8595;DHT22;4335;48.860;9.198;2022-10-28T07:12:07;14.50;99.90
8595;DHT22;4335;48.860;9.198;2022-10-28T07:14:35;14.60;99.90
8595;DHT22;4335;48.860;9.198;2022-10-28T07:17:02;14.60;99.90
8595;DHT22;4335;48.860;9.198;2022-10-28T07:19:29;14.70;99.90
8595;DHT22;4335;48.860;9.198;2022-10-28T07:21:58;14.80;99.90
8595;DHT22;4335;48.860;9.198;2022-10-28T07:24:26;14.80;99.90
8595;DHT22;4335;48.860;9.198;2022-10-28T07:26:53;14.90;99.90
8595;DHT22;4335;48.860;9.198;2022-10-28T07:29:24;14.90;99.90
8595;DHT22;4335;48.860;9.198;2022-10-28T07:31:53;15.00;99.90
8595;DHT22;4335;48.860;9.198;2022-10-28T07:34:21;15.00;99.90
8595;DHT22;4335;48.860;9.198;2022-10-28T07:36:52;15.00;99.90
8595;DHT22;4335;48.860;9.198;2022-10-28T07:39:23;15.00;99.90
8595;DHT22;4335;48.860;9.198;2022-10-28T07:41:51;15.20;99.90
8595;DHT22;4335;48.860;9.198;2022-10-28T07:44:18;15.30;99.90
8595;DHT22;4335;48.860;9.198;2022-10-28T07:46:49;15.40;99.90
8595;DHT22;4335;48.860;9.198;2022-10-28T07:49:16;15.40;99.90
8595;DHT22;4335;48.860;9.198;2022-10-28T07:51:45;15.50;99.90
8595;DHT22;4335;48.860;9.198;2022-10-28T07:54:12;15.60;99.90
8595;DHT22;4335;48.860;9.198;2022-10-28T07:56:49;15.70;99.90
8595;DHT22;4335;48.860;9.198;2022-10-28T07:59:20;15.70;99.90
8595;DHT22;4335;48.860;9.198;2022-10-28T08:01:50;15.70;99.90
8595;DHT22;4335;48.860;9.198;2022-10-28T08:04:20;15.70;99.90
8595;DHT22;4335;48.860;9.198;2022-10-28T08:06:47;15.70;99.90
8595;DHT22;4335;48.860;9.198;2022-10-28T08:09:17;15.80;99.90
8595;DHT22;4335;48.860;9.198;2022-10-28T08:11:45;15.80;99.90
8595;DHT22;4335;48.860;9.198;2022-10-28T08:14:13;15.90;99.90
8595;DHT22;4335;48.860;9.198;2022-10-28T08:16:40;16.00;99.90
8595;DHT22;4335;48.860;9.198;2022-10-28T08:19:12;16.00;99.90
8595;DHT22;4335;48.860;9.198;2022-10-28T08:21:39;16.10;99.90
8595;DHT22;4335;48.860;9.198;2022-10-28T08:24:09;16.20;99.90
8595;DHT22;4335;48.860;9.198;2022-10-28T08:26:37;16.20;99.90
8595;DHT22;4335;48.860;9.198;2022-10-28T08:29:10;16.30;99.90
8595;DHT22;4335;48.860;9.198;2022-10-28T08:31:38;16.40;99.90
8595;DHT22;4335;48.860;9.198;2022-10-28T08:34:05;16.40;99.90
8595;DHT22;4335;48.860;9.198;2022-10-28T08:36:33;16.50;99.90
8595;DHT22;4335;48.860;9.198;2022-10-28T08:39:04;16.60;99.90
8595;DHT22;4335;48.860;9.198;2022-10-28T08:41:36;16.70;99.90
8595;DHT22;4335;48.860;9.198;2022-10-28T08:44:23;16.70;99.90
8595;DHT22;4335;48.860;9.198;2022-10-28T08:47:08;16.80;99.90
8595;DHT22;4335;48.860;9.198;2022-10-28T08:49:40;16.90;99.90
8595;DHT22;4335;48.860;9.198;2022-10-28T08:52:15;16.90;99.90
8595;DHT22;4335;48.860;9.198;2022-10-28T08:54:49;16.90;99.90
8595;DHT22;4335;48.860;9.198;2022-10-28T08:57:21;17.00;99.90
8595;DHT22;4335;48.860;9.198;2022-10-28T08:59:52;17.10;99.90
8595;DHT22;4335;48.860;9.198;2022-10-28T09:02:23;17.20;99.90
8595;DHT22;4335;48.860;9.198;2022-10-28T09:04:57;17.30;99.90
8595;DHT22;4335;48.860;9.198;2022-10-28T09:07:25;17.40;99.90
8595;DHT22;4335;48.860;9.198;2022-10-28T09:09:56;17.50;99.90
8595;DHT22;4335;48.860;9.198;2022-10-28T09:12:31;17.70;99.90
8595;DHT22;4335;48.860;9.198;2022-10-28T09:15:14;17.80;99.90
8595;DHT22;4335;48.860;9.198;2022-10-28T09:17:52;17.90;99.90
8595;DHT22;4335;48.860;9.198;2022-10-28T09:20:26;17.90;99.90
8595;DHT22;4335;48.860;9.198;2022-10-28T09:22:57;17.90;99.90
8595;DHT22;4335;48.860;9.198;2022-10-28T09:25:33;17.80;99.90
8595;DHT22;4335;48.860;9.198;2022-10-28T09:28:24;17.80;99.90
8595;DHT22;4335;48.860;9.198;2022-10-28T09:31:05;17.80;99.90
8595;DHT22;4335;48.860;9.198;2022-10-28T09:33:43;17.80;99.90
8595;DHT22;4335;48.860;9.198;2022-10-28T09:36:16;17.70;99.90
8595;DHT22;4335;48.860;9.198;2022-10-28T09:38:45;17.50;99.90
8595;DHT22;4335;48.860;9.198;2022-10-28T09:41:17;17.40;99.90
8595;DHT22;4335;48.860;9.198;2022-10-28T09:43:48;17.50;99.90
8595;DHT22;4335;48.860;9.198;2022-10-28T09:46:18;17.50;99.90
8595;DHT22;4335;48.860;9.198;2022-10-28T09:48:47;17.50;99.90
8595;DHT22;4335;48.860;9.198;2022-10-28T09:51:30;17.70;99.90
8595;DHT22;4335;48.860;9.198;2022-10-28T09:54:00;17.90;99.90
8595;DHT22;4335;48.860;9.198;2022-10-28T09:56:28;18.10;99.90
8595;DHT22;4335;48.860;9.198;2022-10-28T09:58:58;18.50;99.90
8595;DHT22;4335;48.860;9.198;2022-10-28T10:01:31;19.00;99.90
8595;DHT22;4335;48.860;9.198;2022-10-28T10:04:00;19.40;99.90
8595;DHT22;4335;48.860;9.198;2022-10-28T10:06:31;19.70;99.90
8595;DHT22;4335;48.860;9.198;2022-10-28T10:08:59;19.80;99.90
8595;DHT22;4335;48.860;9.198;2022-10-28T10:11:32;19.90;99.90
8595;DHT22;4335;48.860;9.198;2022-10-28T10:14:07;20.30;99.90
8595;DHT22;4335;48.860;9.198;2022-10-28T10:16:40;21.00;99.90
8595;DHT22;4335;48.860;9.198;2022-10-28T10:19:09;21.80;99.90
8595;DHT22;4335;48.860;9.198;2022-10-28T10:21:42;22.10;99.90
8595;DHT22;4335;48.860;9.198;2022-10-28T10:24:30;22.10;99.90
8595;DHT22;4335;48.860;9.198;2022-10-28T10:27:03;22.00;99.90
8595;DHT22;4335;48.860;9.198;2022-10-28T10:29:43;21.90;99.90
8595;DHT22;4335;48.860;9.198;2022-10-28T10:32:21;21.70;99.90
8595;DHT22;4335;48.860;9.198;2022-10-28T10:34:57;21.50;99.90
8595;DHT22;4335;48.860;9.198;2022-10-28T10:37:27;21.20;99.90
8595;DHT22;4335;48.860;9.198;2022-10-28T10:40:05;21.00;99.90
8595;DHT22;4335;48.860;9.198;2022-10-28T10:42:37;20.60;99.90
8595;DHT22;4335;48.860;9.198;2022-10-28T10:45:19;20.20;99.90
8595;DHT22;4335;48.860;9.198;2022-10-28T10:48:05;20.00;99.90
8595;DHT22;4335;48.860;9.198;2022-10-28T10:50:39;19.90;99.90
8595;DHT22;4335;48.860;9.198;2022-10-28T10:53:17;19.80;99.90
8595;DHT22;4335;48.860;9.198;2022-10-28T10:55:49;19.80;99.90
8595;DHT22;4335;48.860;9.198;2022-10-28T10:58:20;19.80;99.90
8595;DHT22;4335;48.860;9.198;2022-10-28T11:00:49;19.90;99.90
8595;DHT22;4335;48.860;9.198;2022-10-28T11:03:21;19.90;99.90
8595;DHT22;4335;48.860;9.198;2022-10-28T11:05:52;19.90;99.90
8595;DHT22;4335;48.860;9.198;2022-10-28T11:08:35;20.00;99.90
8595;DHT22;4335;48.860;9.198;2022-10-28T11:11:10;20.00;99.90
8595;DHT22;4335;48.860;9.198;2022-10-28T11:13:39;20.00;99.90
8595;DHT22;4335;48.860;9.198;2022-10-28T11:16:19;20.00;99.90
8595;DHT22;4335;48.860;9.198;2022-10-28T11:18:50;19.90;99.90
8595;DHT22;4335;48.860;9.198;2022-10-28T11:21:39;20.00;99.90
8595;DHT22;4335;48.860;9.198;2022-10-28T11:24:29;20.00;99.90
8595;DHT22;4335;48.860;9.198;2022-10-28T11:27:08;20.00;99.90
8595;DHT22;4335;48.860;9.198;2022-10-28T11:29:38;20.10;99.90
8595;DHT22;4335;48.860;9.198;2022-10-28T11:32:29;20.10;99.90
8595;DHT22;4335;48.860;9.198;2022-10-28T11:35:22;20.10;99.90
8595;DHT22;4335;48.860;9.198;2022-10-28T11:38:23;20.20;99.90
8595;DHT22;4335;48.860;9.198;2022-10-28T11:41:03;20.20;99.90
8595;DHT22;4335;48.860;9.198;2022-10-28T11:43:45;20.20;99.90
8595;DHT22;4335;48.860;9.198;2022-10-28T11:46:23;20.20;99.90
8595;DHT22;4335;48.860;9.198;2022-10-28T11:52:10;20.20;99.90
8595;DHT22;4335;48.860;9.198;2022-10-28T11:54:54;20.20;99.90
8595;DHT22;4335;48.860;9.198;2022-10-28T11:57:30;20.10;99.90
8595;DHT22;4335;48.860;9.198;2022-10-28T12:00:22;20.00;99.90
8595;DHT22;4335;48.860;9.198;2022-10-28T12:03:03;20.00;99.90
8595;DHT22;4335;48.860;9.198;2022-10-28T12:05:42;19.90;99.90
8595;DHT22;4335;48.860;9.198;2022-10-28T12:08:29;19.90;99.90
8595;DHT22;4335;48.860;9.198;2022-10-28T12:11:12;20.00;99.90
8595;DHT22;4335;48.860;9.198;2022-10-28T12:13:55;20.00;99.90
8595;DHT22;4335;48.860;9.198;2022-10-28T12:16:34;20.10;99.90
8595;DHT22;4335;48.860;9.198;2022-10-28T12:19:07;20.30;99.90
8595;DHT22;4335;48.860;9.198;2022-10-28T12:21:39;20.40;99.90
8595;DHT22;4335;48.860;9.198;2022-10-28T12:24:13;20.50;99.90
8595;DHT22;4335;48.860;9.198;2022-10-28T12:26:44;20.60;99.90
8595;DHT22;4335;48.860;9.198;2022-10-28T12:29:18;20.70;99.90
8595;DHT22;4335;48.860;9.198;2022-10-28T12:31:49;20.70;99.90
8595;DHT22;4335;48.860;9.198;2022-10-28T12:34:23;20.80;99.90
8595;DHT22;4335;48.860;9.198;2022-10-28T12:36:55;20.90;99.90
8595;DHT22;4335;48.860;9.198;2022-10-28T12:39:29;20.90;99.90
8595;DHT22;4335;48.860;9.198;2022-10-28T12:42:01;21.00;99.90
8595;DHT22;4335;48.860;9.198;2022-10-28T12:44:33;21.10;99.90
8595;DHT22;4335;48.860;9.198;2022-10-28T12:47:13;21.30;99.90
8595;DHT22;4335;48.860;9.198;2022-10-28T12:49:49;21.40;99.90
8595;DHT22;4335;48.860;9.198;2022-10-28T12:52:29;21.50;99.90
8595;DHT22;4335;48.860;9.198;2022-10-28T12:55:17;21.50;99.90
8595;DHT22;4335;48.860;9.198;2022-10-28T12:57:48;21.50;99.90
8595;DHT22;4335;48.860;9.198;2022-10-28T13:00:22;21.60;99.90
8595;DHT22;4335;48.860;9.198;2022-10-28T13:02:57;21.70;99.90
8595;DHT22;4335;48.860;9.198;2022-10-28T13:05:33;21.70;99.90
8595;DHT22;4335;48.860;9.198;2022-10-28T13:08:25;21.70;99.90
8595;DHT22;4335;48.860;9.198;2022-10-28T13:11:00;21.60;99.90
8595;DHT22;4335;48.860;9.198;2022-10-28T13:13:42;21.50;99.90
8595;DHT22;4335;48.860;9.198;2022-10-28T13:16:35;21.40;99.90
8595;DHT22;4335;48.860;9.198;2022-10-28T13:19:37;21.40;99.90
8595;DHT22;4335;48.860;9.198;2022-10-28T13:22:31;21.30;99.90
8595;DHT22;4335;48.860;9.198;2022-10-28T13:25:12;21.20;99.90
8595;DHT22;4335;48.860;9.198;2022-10-28T13:27:45;21.30;99.90
8595;DHT22;4335;48.860;9.198;2022-10-28T13:30:15;21.20;99.90
8595;DHT22;4335;48.860;9.198;2022-10-28T13:32:43;21.20;99.90
8595;DHT22;4335;48.860;9.198;2022-10-28T13:35:13;21.20;99.90
8595;DHT22;4335;48.860;9.198;2022-10-28T13:37:45;21.20;99.90
8595;DHT22;4335;48.860;9.198;2022-10-28T13:40:21;21.20;99.90
8595;DHT22;4335;48.860;9.198;2022-10-28T13:42:51;21.10;99.90
8595;DHT22;4335;48.860;9.198;2022-10-28T13:45:51;21.10;99.90
8595;DHT22;4335;48.860;9.198;2022-10-28T13:48:44;21.10;99.90
8595;DHT22;4335;48.860;9.198;2022-10-28T13:51:32;21.10;99.90
8595;DHT22;4335;48.860;9.198;2022-10-28T13:53:59;21.00;99.90
8595;DHT22;4335;48.860;9.198;2022-10-28T13:56:42;21.00;99.90
8595;DHT22;4335;48.860;9.198;2022-10-28T13:59:23;21.00;99.90
8595;DHT22;4335;48.860;9.198;2022-10-28T14:02:00;21.00;99.90
8595;DHT22;4335;48.860;9.198;2022-10-28T14:04:31;21.00;99.90
8595;DHT22;4335;48.860;9.198;2022-10-28T14:07:16;21.00;99.90
8595;DHT22;4335;48.860;9.198;2022-10-28T14:09:49;21.00;99.90
8595;DHT22;4335;48.860;9.198;2022-10-28T14:12:27;21.00;99.90
8595;DHT22;4335;48.860;9.198;2022-10-28T14:15:03;20.90;99.90
8595;DHT22;4335;48.860;9.198;2022-10-28T14:17:37;21.00;99.90
8595;DHT22;4335;48.860;9.198;2022-10-28T14:20:18;21.00;99.90
8595;DHT22;4335;48.860;9.198;2022-10-28T14:22:52;21.00;99.90
8595;DHT22;4335;48.860;9.198;2022-10-28T14:28:51;21.10;99.90
8595;DHT22;4335;48.860;9.198;2022-10-28T14:31:39;21.10;99.90
8595;DHT22;4335;48.860;9.198;2022-10-28T14:34:33;21.10;99.90
8595;DHT22;4335;48.860;9.198;2022-10-28T14:40:12;21.10;99.90
8595;DHT22;4335;48.860;9.198;2022-10-28T14:43:09;21.00;99.90
8595;DHT22;4335;48.860;9.198;2022-10-28T14:45:48;21.00;99.90
8595;DHT22;4335;48.860;9.198;2022-10-28T14:48:42;21.00;99.90
8595;DHT22;4335;48.860;9.198;2022-10-28T14:51:13;21.00;99.90
8595;DHT22;4335;48.860;9.198;2022-10-28T14:53:42;21.00;99.90
8595;DHT22;4335;48.860;9.198;2022-10-28T14:56:22;21.00;99.90
8595;DHT22;4335;48.860;9.198;2022-10-28T14:58:51;20.90;99.90
8595;DHT22;4335;48.860;9.198;2022-10-28T15:01:36;20.90;99.90
8595;DHT22;4335;48.860;9.198;2022-10-28T15:04:15;20.90;99.90
8595;DHT22;4335;48.860;9.198;2022-10-28T15:06:44;20.80;99.90
8595;DHT22;4335;48.860;9.198;2022-10-28T15:09:18;20.80;99.90
8595;DHT22;4335;48.860;9.198;2022-10-28T15:11:49;20.70;99.90
8595;DHT22;4335;48.860;9.198;2022-10-28T15:14:26;20.70;99.90
8595;DHT22;4335;48.860;9.198;2022-10-28T15:16:55;20.70;99.90
8595;DHT22;4335;48.860;9.198;2022-10-28T15:19:26;20.60;99.90
8595;DHT22;4335;48.860;9.198;2022-10-28T15:22:06;20.60;99.90
8595;DHT22;4335;48.860;9.198;2022-10-28T15:24:36;20.50;99.90
8595;DHT22;4335;48.860;9.198;2022-10-28T15:27:10;20.50;99.90
8595;DHT22;4335;48.860;9.198;2022-10-28T15:29:40;20.50;99.90
8595;DHT22;4335;48.860;9.198;2022-10-28T15:32:34;20.40;99.90
8595;DHT22;4335;48.860;9.198;2022-10-28T15:38:39;20.40;99.90
8595;DHT22;4335;48.860;9.198;2022-10-28T15:44:40;20.20;99.90
8595;DHT22;4335;48.860;9.198;2022-10-28T15:47:20;20.20;99.90
8595;DHT22;4335;48.860;9.198;2022-10-28T15:50:02;20.10;99.90
8595;DHT22;4335;48.860;9.198;2022-10-28T15:52:38;20.10;99.90
8595;DHT22;4335;48.860;9.198;2022-10-28T15:55:31;20.00;99.90
8595;DHT22;4335;48.860;9.198;2022-10-28T15:58:00;20.00;99.90
8595;DHT22;4335;48.860;9.198;2022-10-28T16:00:32;19.90;99.90
8595;DHT22;4335;48.860;9.198;2022-10-28T16:03:03;19.90;99.90
8595;DHT22;4335;48.860;9.198;2022-10-28T16:05:45;19.90;99.90
8595;DHT22;4335;48.860;9.198;2022-10-28T16:08:21;19.90;99.90
8595;DHT22;4335;48.860;9.198;2022-10-28T16:10:54;19.80;99.90
8595;DHT22;4335;48.860;9.198;2022-10-28T16:13:27;19.80;99.90
8595;DHT22;4335;48.860;9.198;2022-10-28T16:15:59;19.70;99.90
8595;DHT22;4335;48.860;9.198;2022-10-28T16:18:32;19.70;99.90
8595;DHT22;4335;48.860;9.198;2022-10-28T16:21:03;19.60;99.90
8595;DHT22;4335;48.860;9.198;2022-10-28T16:23:36;19.60;99.90
8595;DHT22;4335;48.860;9.198;2022-10-28T16:26:10;19.50;99.90
8595;DHT22;4335;48.860;9.198;2022-10-28T16:28:38;19.50;99.90
8595;DHT22;4335;48.860;9.198;2022-10-28T16:31:08;19.50;99.90
8595;DHT22;4335;48.860;9.198;2022-10-28T16:33:39;19.50;99.90
8595;DHT22;4335;48.860;9.198;2022-10-28T16:36:11;19.40;99.90
8595;DHT22;4335;48.860;9.198;2022-10-28T16:38:39;19.40;99.90
8595;DHT22;4335;48.860;9.198;2022-10-28T16:41:13;19.40;99.90
8595;DHT22;4335;48.860;9.198;2022-10-28T16:43:42;19.40;99.90
8595;DHT22;4335;48.860;9.198;2022-10-28T16:46:10;19.30;99.90
8595;DHT22;4335;48.860;9.198;2022-10-28T16:48:38;19.30;99.90
8595;DHT22;4335;48.860;9.198;2022-10-28T16:51:11;19.30;99.90
8595;DHT22;4335;48.860;9.198;2022-10-28T16:53:42;19.30;99.90
8595;DHT22;4335;48.860;9.198;2022-10-28T16:56:13;19.30;99.90
8595;DHT22;4335;48.860;9.198;2022-10-28T16:58:41;19.20;99.90
8595;DHT22;4335;48.860;9.198;2022-10-28T17:01:09;19.20;99.90
8595;DHT22;4335;48.860;9.198;2022-10-28T17:03:37;19.20;99.90